createdAt,value
2022-12-18T00:02:24.674Z,102443.19
2022-12-18T00:04:58.211Z,102425.06
2022-12-18T00:07:29.166Z,102440.50
2022-12-18T00:09:58.984Z,102416.72
2022-12-18T00:12:30.305Z,102445.09
2022-12-18T00:15:02.304Z,102377.06
2022-12-18T00:17:42.460Z,102443.47
2022-12-18T00:20:22.779Z,102443.81
2022-12-18T00:22:55.807Z,102414.56
2022-12-18T00:25:29.712Z,102441.88
2022-12-18T00:28:05.716Z,102440.81
2022-12-18T00:30:35.583Z,102445.81
2022-12-18T00:33:09.733Z,102433.75
2022-12-18T00:35:43.175Z,102454.72
2022-12-18T00:38:16.759Z,102442.41
2022-12-18T00:40:52.761Z,102437.78
2022-12-18T00:43:22.022Z,102432.25
2022-12-18T00:45:53.936Z,102432.81
2022-12-18T00:48:26.316Z,102430.88
2022-12-18T00:51:05.091Z,102443.66
2022-12-18T00:53:36.301Z,102437.69
2022-12-18T00:56:06.595Z,102446.03
2022-12-18T00:58:40.724Z,102432.53
2022-12-18T01:01:12.105Z,102422.47
2022-12-18T01:03:46.220Z,102422.81
2022-12-18T01:06:19.635Z,102434.22
2022-12-18T01:08:50.089Z,102426.75
2022-12-18T01:11:23.140Z,102419.25
2022-12-18T01:13:53.078Z,102408.09
2022-12-18T01:16:26.440Z,102431.31
2022-12-18T01:18:57.379Z,102425.31
2022-12-18T01:21:29.759Z,102434.91
2022-12-18T01:24:01.083Z,102433.53
2022-12-18T01:26:31.380Z,102431.81
2022-12-18T01:29:01.805Z,102415.50
2022-12-18T01:31:35.571Z,102440.34
2022-12-18T01:34:06.896Z,102448.88
2022-12-18T01:36:42.540Z,102440.72
2022-12-18T01:39:16.097Z,102456.16
2022-12-18T01:41:58.735Z,102446.56
2022-12-18T01:45:04.330Z,102448.34
2022-12-18T01:47:40.095Z,102425.16
2022-12-18T01:50:14.444Z,102445.16
2022-12-18T01:52:50.657Z,102435.56
2022-12-18T01:55:22.897Z,102389.16
2022-12-18T01:57:56.164Z,102433.44
2022-12-18T02:00:27.495Z,102449.19
2022-12-18T02:02:58.164Z,102443.66
2022-12-18T02:05:38.362Z,102435.63
2022-12-18T02:08:17.527Z,102439.19
2022-12-18T02:10:57.112Z,102434.78
2022-12-18T02:13:35.122Z,102432.66
2022-12-18T02:16:12.519Z,102441.69
2022-12-18T02:18:49.023Z,102429.66
2022-12-18T02:21:31.452Z,102427.34
2022-12-18T02:24:17.472Z,102434.47
2022-12-18T02:26:54.098Z,102430.06
2022-12-18T02:29:29.944Z,102440.56
2022-12-18T02:32:03.002Z,102437.91
2022-12-18T02:34:36.623Z,102451.91
2022-12-18T02:37:10.883Z,102454.59
2022-12-18T02:39:44.125Z,102444.13
2022-12-18T02:42:20.032Z,102432.25
2022-12-18T02:44:54.341Z,102431.72
2022-12-18T02:47:30.929Z,102436.19
2022-12-18T02:50:11.402Z,102445.91
2022-12-18T02:52:49.634Z,102420.94
2022-12-18T02:55:31.184Z,102443.44
2022-12-18T02:58:16.443Z,102442.38
2022-12-18T03:00:54.272Z,102436.50
2022-12-18T03:03:31.274Z,102437.94
2022-12-18T03:06:05.569Z,102403.75
2022-12-18T03:08:41.166Z,102414.34
2022-12-18T03:11:13.253Z,102423.75
2022-12-18T03:13:51.575Z,102425.88
2022-12-18T03:16:26.339Z,102430.13
2022-12-18T03:19:01.666Z,102446.97
2022-12-18T03:21:36.607Z,102454.97
2022-12-18T03:24:09.822Z,102455.84
2022-12-18T03:26:42.923Z,102445.25
2022-12-18T03:29:21.548Z,102454.59
2022-12-18T03:31:57.152Z,102446.13
2022-12-18T03:34:32.410Z,102441.69
2022-12-18T03:37:05.958Z,102463.81
2022-12-18T03:39:36.649Z,102461.03
2022-12-18T03:42:14.526Z,102461.53
2022-12-18T03:44:59.760Z,102454.81
2022-12-18T03:47:34.410Z,102455.47
2022-12-18T03:50:12.981Z,102451.81
2022-12-18T03:52:51.008Z,102433.34
2022-12-18T03:55:23.472Z,102440.78
2022-12-18T03:58:01.306Z,102424.50
2022-12-18T04:00:41.672Z,102437.63
2022-12-18T04:03:14.152Z,102386.91
2022-12-18T04:05:50.185Z,102434.91
2022-12-18T04:08:22.783Z,102440.06
2022-12-18T04:11:03.168Z,102435.84
2022-12-18T04:13:38.556Z,102395.41
2022-12-18T04:16:14.909Z,102420.59
2022-12-18T04:18:46.921Z,102427.16
2022-12-18T04:21:18.287Z,102437.09
2022-12-18T04:23:50.409Z,102424.84
2022-12-18T04:26:22.919Z,102442.91
2022-12-18T04:29:19.019Z,102438.66
2022-12-18T04:31:51.991Z,102436.69
2022-12-18T04:34:22.492Z,102446.97
2022-12-18T04:36:55.806Z,102442.38
2022-12-18T04:39:26.680Z,102444.31
2022-12-18T04:41:59.370Z,102402.31
2022-12-18T04:44:29.090Z,102453.19
2022-12-18T04:47:01.476Z,102451.78
2022-12-18T04:49:31.241Z,102440.81
2022-12-18T04:52:01.089Z,102442.41
2022-12-18T04:54:31.612Z,102439.91
2022-12-18T04:57:01.412Z,102431.94
2022-12-18T04:59:31.475Z,102405.69
2022-12-18T05:02:03.886Z,102422.38
2022-12-18T05:04:33.760Z,102424.44
2022-12-18T05:07:03.675Z,102434.22
2022-12-18T05:09:33.643Z,102434.88
2022-12-18T05:12:03.380Z,102442.84
2022-12-18T05:14:33.161Z,102425.84
2022-12-18T05:17:05.610Z,102439.34
2022-12-18T05:19:35.543Z,102406.22
2022-12-18T05:22:05.294Z,102434.59
2022-12-18T05:24:35.107Z,102454.63
2022-12-18T05:27:04.915Z,102442.56
2022-12-18T05:29:34.776Z,102438.13
2022-12-18T05:32:07.642Z,102433.34
2022-12-18T05:34:37.422Z,102442.56
2022-12-18T05:37:07.121Z,102455.16
2022-12-18T05:39:36.878Z,102455.47
2022-12-18T05:42:06.842Z,102459.75
2022-12-18T05:44:36.645Z,102466.28
2022-12-18T05:47:08.987Z,102457.78
2022-12-18T05:49:38.848Z,102456.91
2022-12-18T05:52:08.699Z,102456.38
2022-12-18T05:54:38.566Z,102407.06
2022-12-18T05:57:08.371Z,102331.81
2022-12-18T05:59:38.451Z,102460.81
2022-12-18T06:02:10.956Z,102459.22
2022-12-18T06:04:40.793Z,102445.41
2022-12-18T06:07:10.587Z,102456.00
2022-12-18T06:09:40.387Z,102462.56
2022-12-18T06:12:10.724Z,102466.66
2022-12-18T06:14:40.499Z,102472.16
2022-12-18T06:17:12.882Z,102473.56
2022-12-18T06:19:42.626Z,102467.72
2022-12-18T06:22:12.376Z,102460.44
2022-12-18T06:24:42.113Z,102449.09
2022-12-18T06:27:11.868Z,102456.19
2022-12-18T06:29:41.642Z,102450.88
2022-12-18T06:32:14.027Z,102466.63
2022-12-18T06:34:44.736Z,102463.78
2022-12-18T06:37:14.523Z,102470.91
2022-12-18T06:39:44.327Z,102466.25
2022-12-18T06:42:14.074Z,102468.41
2022-12-18T06:44:43.841Z,102465.94
2022-12-18T06:47:16.220Z,102408.13
2022-12-18T06:49:46.636Z,102480.66
2022-12-18T06:52:16.397Z,102485.09
2022-12-18T06:54:46.158Z,102471.06
2022-12-18T06:57:15.918Z,102486.13
2022-12-18T06:59:45.917Z,102430.84
2022-12-18T07:02:18.626Z,102489.38
2022-12-18T07:04:48.468Z,102495.03
2022-12-18T07:07:18.234Z,102462.06
2022-12-18T07:09:48.031Z,102504.06
2022-12-18T07:12:17.801Z,102503.91
2022-12-18T07:14:47.975Z,102482.25
2022-12-18T07:17:20.368Z,102507.97
2022-12-18T07:19:50.155Z,102489.00
2022-12-18T07:22:19.939Z,102502.50
2022-12-18T07:24:50.056Z,102446.63
2022-12-18T07:27:19.847Z,102515.25
2022-12-18T07:29:49.595Z,102500.34
2022-12-18T07:32:24.065Z,102486.50
2022-12-18T07:34:54.054Z,102498.03
2022-12-18T07:37:27.851Z,102446.63
2022-12-18T07:39:58.057Z,102485.25
2022-12-18T07:42:35.889Z,102489.69
2022-12-18T07:45:06.983Z,102495.56
2022-12-18T07:47:42.255Z,102472.66
2022-12-18T07:50:12.538Z,102489.00
2022-12-18T07:52:47.696Z,102498.59
2022-12-18T07:55:21.744Z,102494.50
2022-12-18T07:57:56.417Z,102423.78
2022-12-18T08:00:32.784Z,102508.00
2022-12-18T08:03:08.388Z,102450.16
2022-12-18T08:05:38.291Z,102511.00
2022-12-18T08:08:08.550Z,102504.44
2022-12-18T08:10:42.370Z,102506.03
2022-12-18T08:13:12.276Z,102506.75
2022-12-18T08:15:42.033Z,102496.44
2022-12-18T08:18:18.470Z,102506.00
2022-12-18T08:20:48.389Z,102492.38
2022-12-18T08:23:26.494Z,102476.19
2022-12-18T08:25:58.428Z,102477.25
2022-12-18T08:28:28.303Z,102486.63
2022-12-18T08:30:58.295Z,102416.25
2022-12-18T08:33:36.044Z,102473.63
2022-12-18T08:36:06.904Z,102481.97
2022-12-18T08:38:39.846Z,102476.31
2022-12-18T08:41:16.474Z,102484.97
2022-12-18T08:44:02.655Z,102478.59
2022-12-18T08:46:37.861Z,102450.09
2022-12-18T08:49:13.918Z,102463.88
2022-12-18T08:51:44.285Z,102478.91
2022-12-18T08:54:16.514Z,102475.09
2022-12-18T08:56:50.624Z,102470.44
2022-12-18T08:59:20.781Z,102466.69
2022-12-18T09:01:51.867Z,102465.19
2022-12-18T09:04:26.600Z,102436.28
2022-12-18T09:07:00.173Z,102416.03
2022-12-18T09:09:29.948Z,102470.91
2022-12-18T09:12:01.127Z,102451.88
2022-12-18T09:14:39.226Z,102459.19
2022-12-18T09:17:09.062Z,102449.41
2022-12-18T09:19:41.516Z,102441.44
2022-12-18T09:22:14.791Z,102440.47
2022-12-18T09:24:47.749Z,102441.59
2022-12-18T09:27:20.744Z,102433.09
2022-12-18T09:29:52.515Z,102443.06
2022-12-18T09:32:23.407Z,102440.69
2022-12-18T09:34:59.747Z,102456.84
2022-12-18T09:37:32.786Z,102448.94
2022-12-18T09:40:02.622Z,102429.31
2022-12-18T09:42:36.923Z,102451.16
2022-12-18T09:45:08.677Z,102459.91
2022-12-18T09:47:41.469Z,102458.50
2022-12-18T09:50:28.165Z,102458.28
2022-12-18T09:53:08.794Z,102448.50
2022-12-18T09:55:43.526Z,102441.53
2022-12-18T09:58:20.668Z,102447.00
2022-12-18T10:00:50.856Z,102442.91
2022-12-18T10:03:21.753Z,102421.91
2022-12-18T10:06:02.872Z,102458.91
2022-12-18T10:08:45.862Z,102450.72
2022-12-18T10:11:29.424Z,102445.72
2022-12-18T10:14:12.719Z,102471.06
2022-12-18T10:16:56.918Z,102460.63
2022-12-18T10:19:41.026Z,102452.22
2022-12-18T10:22:25.680Z,102435.16
2022-12-18T10:25:05.493Z,102446.50
2022-12-18T10:27:36.672Z,102428.69
2022-12-18T10:30:16.673Z,102447.06
2022-12-18T10:32:46.720Z,102448.84
2022-12-18T10:35:22.801Z,102438.06
2022-12-18T10:38:10.311Z,102432.47
2022-12-18T10:40:53.773Z,102430.66
2022-12-18T10:43:27.562Z,102417.81
2022-12-18T10:46:22.495Z,102394.38
2022-12-18T10:48:58.690Z,102414.63
2022-12-18T10:51:32.467Z,102421.38
2022-12-18T10:54:08.682Z,102398.50
2022-12-18T10:56:40.652Z,102404.38
2022-12-18T10:59:15.906Z,102401.53
2022-12-18T11:01:57.063Z,102385.28
2022-12-18T11:04:28.786Z,102405.69
2022-12-18T11:07:04.309Z,102395.47
2022-12-18T11:09:38.790Z,102383.06
2022-12-18T11:12:19.525Z,102329.94
2022-12-18T11:14:51.900Z,102369.22
2022-12-18T11:17:26.280Z,102377.91
2022-12-18T11:20:04.865Z,102385.44
2022-12-18T11:22:37.539Z,102378.91
2022-12-18T11:25:32.271Z,102364.16
2022-12-18T11:28:09.815Z,102361.16
2022-12-18T11:30:41.256Z,102352.88
2022-12-18T11:33:18.512Z,102360.81
2022-12-18T11:35:54.538Z,102334.28
2022-12-18T11:38:30.461Z,102350.69
2022-12-18T11:41:06.742Z,102345.41
2022-12-18T11:43:45.037Z,102341.38
2022-12-18T11:46:19.971Z,102330.09
2022-12-18T11:49:03.048Z,102338.31
2022-12-18T11:51:39.152Z,102337.75
2022-12-18T11:54:17.484Z,102313.41
2022-12-18T11:56:57.477Z,102295.88
2022-12-18T11:59:37.818Z,102287.91
2022-12-18T12:02:33.670Z,102316.00
2022-12-18T12:05:24.382Z,102301.56
2022-12-18T12:08:00.844Z,102312.25
2022-12-18T12:10:45.815Z,102314.28
2022-12-18T12:13:45.478Z,102231.66
2022-12-18T12:16:25.213Z,102308.38
2022-12-18T12:19:07.375Z,102285.59
2022-12-18T12:21:44.324Z,102284.03
2022-12-18T12:24:30.595Z,102292.50
2022-12-18T12:27:13.353Z,102297.69
2022-12-18T12:30:02.101Z,102275.47
2022-12-18T12:32:49.360Z,102269.13
2022-12-18T12:35:31.738Z,102280.47
2022-12-18T12:38:11.958Z,102275.13
2022-12-18T12:40:55.333Z,102253.06
2022-12-18T12:43:35.127Z,102281.19
2022-12-18T12:46:13.931Z,102268.59
2022-12-18T12:48:49.193Z,102260.47
2022-12-18T12:51:23.330Z,102266.31
2022-12-18T12:53:53.432Z,102254.25
2022-12-18T12:56:24.992Z,102266.91
2022-12-18T12:59:05.972Z,102248.06
2022-12-18T13:01:51.418Z,102245.00
2022-12-18T13:04:31.566Z,102251.78
2022-12-18T13:07:09.019Z,102181.47
2022-12-18T13:10:17.482Z,102242.38
2022-12-18T13:12:57.883Z,102234.78
2022-12-18T13:15:36.856Z,102244.88
2022-12-18T13:18:30.111Z,102253.53
2022-12-18T13:21:11.899Z,102256.75
2022-12-18T13:23:42.286Z,102241.41
2022-12-18T13:26:36.923Z,102261.41
2022-12-18T13:29:09.804Z,102260.78
2022-12-18T13:32:09.615Z,102210.75
2022-12-18T13:34:41.993Z,102240.50
2022-12-18T13:37:46.039Z,102238.53
2022-12-18T13:41:01.074Z,102232.88
2022-12-18T13:43:34.916Z,102209.91
2022-12-18T13:46:20.884Z,102212.56
2022-12-18T13:48:55.921Z,102213.03
2022-12-18T13:51:29.551Z,102204.13
2022-12-18T13:54:02.692Z,102194.59
2022-12-18T13:59:38.446Z,102190.59
2022-12-18T14:02:18.087Z,102163.72
2022-12-18T14:04:50.036Z,102169.03
2022-12-18T14:07:24.651Z,102170.44
2022-12-18T14:10:06.439Z,102158.63
2022-12-18T14:13:03.119Z,102158.34
2022-12-18T14:15:38.530Z,102152.19
2022-12-18T14:18:23.492Z,102151.69
2022-12-18T14:20:55.056Z,102145.16
2022-12-18T14:23:40.235Z,102155.03
2022-12-18T14:26:26.412Z,102158.56
2022-12-18T14:29:02.092Z,102157.69
2022-12-18T14:31:35.812Z,102156.81
2022-12-18T14:34:05.702Z,102161.81
2022-12-18T14:36:35.559Z,102172.41
2022-12-18T14:39:08.990Z,102170.78
2022-12-18T14:41:38.869Z,102155.72
2022-12-18T14:44:15.060Z,102156.38
2022-12-18T14:46:47.489Z,102158.06
2022-12-18T14:49:25.408Z,102159.19
2022-12-18T14:51:58.675Z,102147.22
2022-12-18T14:54:33.315Z,102136.19
2022-12-18T14:57:09.715Z,102129.91
2022-12-18T14:59:40.476Z,102094.06
2022-12-18T15:02:22.381Z,102142.03
2022-12-18T15:05:09.818Z,102139.44
2022-12-18T15:07:47.327Z,102125.09
2022-12-18T15:10:23.386Z,102126.22
2022-12-18T15:13:09.520Z,102145.41
2022-12-18T15:15:50.523Z,102116.44
2022-12-18T15:18:22.730Z,102126.59
2022-12-18T15:20:58.007Z,102132.59
2022-12-18T15:23:30.283Z,102111.38
2022-12-18T15:26:04.406Z,102122.53
2022-12-18T15:28:39.060Z,102095.41
2022-12-18T15:31:26.205Z,102115.78
2022-12-18T15:34:21.924Z,102093.28
2022-12-18T15:36:54.397Z,102099.59
2022-12-18T15:39:24.626Z,102044.69
2022-12-18T15:42:11.644Z,102087.09
2022-12-18T15:44:41.765Z,102067.09
2022-12-18T15:47:15.932Z,102065.97
2022-12-18T15:49:46.978Z,102063.72
2022-12-18T15:52:27.125Z,102067.38
2022-12-18T15:55:09.692Z,102038.84
2022-12-18T15:57:42.060Z,102058.97
2022-12-18T16:00:16.360Z,102061.59
2022-12-18T16:02:48.199Z,102063.44
2022-12-18T16:05:21.194Z,102058.84
2022-12-18T16:07:51.497Z,102040.59
2022-12-18T16:10:21.467Z,102030.75
2022-12-18T16:12:54.207Z,102050.34
2022-12-18T16:15:24.960Z,102059.78
2022-12-18T16:17:55.523Z,102063.72
2022-12-18T16:20:26.475Z,101982.41
2022-12-18T16:22:58.294Z,102037.59
2022-12-18T16:25:30.310Z,102025.22
2022-12-18T16:28:04.760Z,102015.91
2022-12-18T16:30:40.587Z,102009.88
2022-12-18T16:33:13.809Z,102025.22
2022-12-18T16:35:44.627Z,102011.00
2022-12-18T16:38:14.593Z,102009.38
2022-12-18T16:41:05.589Z,102011.25
2022-12-18T16:43:41.604Z,102011.25
2022-12-18T16:46:12.906Z,101979.44
2022-12-18T16:48:42.723Z,101989.44
2022-12-18T16:51:12.679Z,101989.69
2022-12-18T16:53:44.302Z,101972.38
2022-12-18T16:56:14.832Z,101981.91
2022-12-18T16:58:47.291Z,101970.75
2022-12-18T17:01:20.940Z,101985.56
2022-12-18T17:03:56.722Z,101976.50
2022-12-18T17:06:27.507Z,101962.94
2022-12-18T17:08:58.900Z,101978.13
2022-12-18T17:11:30.751Z,101950.16
2022-12-18T17:14:08.448Z,101963.94
2022-12-18T17:16:42.291Z,101968.59
2022-12-18T17:19:17.109Z,101962.19
2022-12-18T17:21:48.289Z,101979.28
2022-12-18T17:24:18.453Z,101966.72
2022-12-18T17:26:51.412Z,101962.94
2022-12-18T17:29:25.893Z,101954.88
2022-12-18T17:31:56.308Z,101950.72
2022-12-18T17:34:31.093Z,101905.16
2022-12-18T17:37:04.912Z,101940.75
2022-12-18T17:39:34.782Z,101930.72
2022-12-18T17:42:05.300Z,101922.03
2022-12-18T17:44:38.229Z,101922.88
2022-12-18T17:47:10.155Z,101919.38
2022-12-18T17:49:40.126Z,101906.31
2022-12-18T17:52:10.354Z,101904.06
2022-12-18T17:54:42.353Z,101858.94
2022-12-18T17:57:12.358Z,101905.13
2022-12-18T17:59:48.469Z,101926.16
2022-12-18T18:02:18.349Z,101901.91
2022-12-18T18:04:49.200Z,101891.38
2022-12-18T18:07:19.111Z,101882.91
2022-12-18T18:09:48.923Z,101896.81
2022-12-18T18:12:31.243Z,101891.75
2022-12-18T18:15:03.779Z,101854.66
2022-12-18T18:17:35.670Z,101854.94
2022-12-18T18:20:07.803Z,101828.38
2022-12-18T18:22:38.818Z,101872.47
2022-12-18T18:25:12.456Z,101854.44
2022-12-18T18:27:44.129Z,101859.88
2022-12-18T18:30:19.548Z,101845.56
2022-12-18T18:32:56.596Z,101860.84
2022-12-18T18:35:53.400Z,101853.16
2022-12-18T18:38:24.027Z,101841.69
2022-12-18T18:41:01.070Z,101854.38
2022-12-18T18:43:31.825Z,101811.44
2022-12-18T18:46:06.184Z,101835.22
2022-12-18T18:48:41.752Z,101824.50
2022-12-18T18:51:20.852Z,101831.63
2022-12-18T18:53:53.981Z,101815.84
2022-12-18T18:59:18.629Z,101788.50
2022-12-18T19:01:52.806Z,101793.44
2022-12-18T19:04:23.845Z,101784.94
2022-12-18T19:06:53.759Z,101745.22
2022-12-18T19:09:24.523Z,101815.94
2022-12-18T19:12:07.850Z,101815.19
2022-12-18T19:14:37.785Z,101818.78
2022-12-18T19:17:10.380Z,101813.47
2022-12-18T19:19:42.968Z,101810.00
2022-12-18T19:22:14.196Z,101782.59
2022-12-18T19:24:44.080Z,101783.28
2022-12-18T19:27:13.928Z,101798.22
2022-12-18T19:29:46.858Z,101766.03
2022-12-18T19:32:20.321Z,101763.59
2022-12-18T19:34:50.248Z,101760.13
2022-12-18T19:37:20.476Z,101740.09
2022-12-18T19:39:50.326Z,101747.22
2022-12-18T19:42:29.280Z,101727.63
2022-12-18T19:45:05.011Z,101798.44
2022-12-18T19:47:38.415Z,101764.19
2022-12-18T19:50:14.849Z,101823.47
2022-12-18T19:52:44.842Z,101796.47
2022-12-18T19:55:18.131Z,101785.91
2022-12-18T19:57:48.874Z,101800.03
2022-12-18T20:00:21.134Z,101791.09
2022-12-18T20:03:00.114Z,101781.75
2022-12-18T20:05:33.786Z,101778.50
2022-12-18T20:08:05.623Z,101810.78
2022-12-18T20:10:36.737Z,101796.56
2022-12-18T20:13:07.554Z,101816.59
2022-12-18T20:15:40.509Z,101825.13
2022-12-18T20:18:24.300Z,101820.34
2022-12-18T20:20:55.193Z,101794.84
2022-12-18T20:23:27.811Z,101807.44
2022-12-18T20:25:58.622Z,101811.22
2022-12-18T20:28:28.898Z,101818.28
2022-12-18T20:31:03.006Z,101806.41
2022-12-18T20:33:35.579Z,101804.03
2022-12-18T20:36:09.520Z,101808.50
2022-12-18T20:38:40.804Z,101796.38
2022-12-18T20:41:14.321Z,101794.81
2022-12-18T20:43:47.979Z,101793.94
2022-12-18T20:46:19.600Z,101815.28
2022-12-18T20:48:52.014Z,101831.22
2022-12-18T20:51:26.799Z,101830.84
2022-12-18T20:53:59.708Z,101827.44
2022-12-18T20:56:33.351Z,101822.00
2022-12-18T20:59:05.203Z,101812.94
2022-12-18T21:01:36.143Z,101820.13
2022-12-18T21:04:12.479Z,101819.25
2022-12-18T21:06:49.382Z,101803.47
2022-12-18T21:09:21.988Z,101829.28
2022-12-18T21:12:04.601Z,101829.06
2022-12-18T21:14:35.403Z,101804.81
2022-12-18T21:17:05.286Z,101824.00
2022-12-18T21:19:39.199Z,101831.00
2022-12-18T21:22:16.050Z,101828.31
2022-12-18T21:24:45.829Z,101829.66
2022-12-18T21:27:17.618Z,101813.81
2022-12-18T21:29:48.105Z,101822.59
2022-12-18T21:32:20.877Z,101822.53
2022-12-18T21:34:54.684Z,101826.13
2022-12-18T21:37:28.159Z,101827.25
2022-12-18T21:39:58.018Z,101828.09
2022-12-18T21:42:40.485Z,101829.41
2022-12-18T21:45:14.978Z,101817.97
2022-12-18T21:47:44.711Z,101796.16
2022-12-18T21:50:20.502Z,101797.94
2022-12-18T21:52:50.423Z,101801.91
2022-12-18T21:55:20.313Z,101803.03
2022-12-18T21:57:50.316Z,101799.22
2022-12-18T22:00:21.024Z,101771.78
2022-12-18T22:03:15.554Z,101795.41
2022-12-18T22:05:45.217Z,101759.84
2022-12-18T22:08:15.192Z,101774.50
2022-12-18T22:10:52.627Z,101762.47
2022-12-18T22:13:28.596Z,101764.88
2022-12-18T22:16:04.728Z,101769.63
2022-12-18T22:18:34.680Z,101774.16
2022-12-18T22:21:10.206Z,101778.31
2022-12-18T22:23:39.960Z,101774.69
2022-12-18T22:26:10.818Z,101758.94
2022-12-18T22:28:53.019Z,101772.34
2022-12-18T22:31:22.939Z,101751.84
2022-12-18T22:33:53.874Z,101754.75
2022-12-18T22:36:26.656Z,101748.69
2022-12-18T22:38:56.449Z,101754.00
2022-12-18T22:41:26.237Z,101725.16
2022-12-18T22:43:58.649Z,101739.94
2022-12-18T22:46:29.392Z,101716.63
2022-12-18T22:48:59.151Z,101732.91
2022-12-18T22:51:31.553Z,101731.00
2022-12-18T22:54:01.500Z,101732.81
2022-12-18T22:56:31.876Z,101725.22
2022-12-18T22:59:01.803Z,101719.72
2022-12-18T23:01:33.045Z,101720.47
2022-12-18T23:04:05.079Z,101720.72
2022-12-18T23:06:37.446Z,101720.41
2022-12-18T23:09:07.192Z,101719.88
2022-12-18T23:11:36.935Z,101691.91
2022-12-18T23:14:06.703Z,101668.97
2022-12-18T23:16:36.521Z,101706.56
2022-12-18T23:19:06.804Z,101724.66
2022-12-18T23:21:39.870Z,101726.03
2022-12-18T23:24:10.593Z,101709.25
2022-12-18T23:26:40.722Z,101711.03
2022-12-18T23:29:10.905Z,101716.38
2022-12-18T23:31:42.581Z,101717.59
2022-12-18T23:34:15.579Z,101712.84
2022-12-18T23:36:49.970Z,101700.13
2022-12-18T23:39:29.412Z,101708.31
2022-12-18T23:42:00.393Z,101702.59
2022-12-18T23:44:30.346Z,101709.72
2022-12-18T23:47:00.152Z,101695.50
2022-12-18T23:49:29.936Z,101709.72
2022-12-18T23:52:02.423Z,101709.97
2022-12-18T23:54:33.283Z,101712.78
2022-12-18T23:57:03.817Z,101707.31
2022-12-18T23:59:33.885Z,101700.88
